createdAt,value
2019-05-30T00:04:29.651Z,4.97
2019-05-30T00:09:35.003Z,5.13
2019-05-30T00:14:40.208Z,4.63
2019-05-30T00:19:47.190Z,4.37
2019-05-30T00:24:52.567Z,3.87
2019-05-30T00:29:59.293Z,4.40
2019-05-30T00:35:05.909Z,4.97
2019-05-30T00:40:11.678Z,5.30
2019-05-30T00:45:21.037Z,5.27
2019-05-30T00:50:26.732Z,5.30
2019-05-30T00:55:33.353Z,5.17
2019-05-30T01:00:43.333Z,5.40
2019-05-30T01:05:46.513Z,5.73
2019-05-30T01:10:54.049Z,4.53
2019-05-30T01:16:01.648Z,4.87
2019-05-30T01:21:08.262Z,4.27
2019-05-30T01:26:13.815Z,4.63
2019-05-30T01:31:19.153Z,4.33
2019-05-30T01:36:24.664Z,4.33
2019-05-30T01:41:30.013Z,4.67
2019-05-30T01:46:35.253Z,4.40
2019-05-30T01:51:40.798Z,3.83
2019-05-30T01:56:46.076Z,4.50
2019-05-30T02:01:52.264Z,4.77
2019-05-30T02:06:59.236Z,4.67
2019-05-30T02:12:05.610Z,4.80
2019-05-30T02:17:11.065Z,4.90
2019-05-30T02:22:16.454Z,4.43
2019-05-30T02:27:21.728Z,4.23
2019-05-30T02:32:28.040Z,4.53
2019-05-30T02:37:33.379Z,3.90
2019-05-30T02:42:40.736Z,4.23
2019-05-30T02:47:46.019Z,4.77
2019-05-30T02:52:51.498Z,4.40
2019-05-30T02:57:56.911Z,4.77
2019-05-30T03:03:03.847Z,4.57
2019-05-30T03:08:13.742Z,4.33
2019-05-30T03:13:17.187Z,4.57
2019-05-30T03:18:22.728Z,4.40
2019-05-30T03:23:28.187Z,5.03
2019-05-30T03:28:33.413Z,4.50
2019-05-30T03:33:42.401Z,4.83
2019-05-30T03:38:46.204Z,4.43
2019-05-30T03:43:53.460Z,4.30
2019-05-30T03:49:04.114Z,4.73
2019-05-30T03:54:12.238Z,4.10
2019-05-30T03:59:34.897Z,4.57
2019-05-30T04:04:47.073Z,4.97
2019-05-30T04:09:55.777Z,4.80
2019-05-30T04:15:08.001Z,3.50
2019-05-30T04:20:17.818Z,4.20
2019-05-30T04:25:21.250Z,4.40
2019-05-30T04:30:26.455Z,3.87
2019-05-30T04:35:31.724Z,4.77
2019-05-30T04:40:37.285Z,3.93
2019-05-30T04:45:43.016Z,5.13
2019-05-30T04:50:48.210Z,4.50
2019-05-30T04:55:55.466Z,4.67
2019-05-30T05:01:01.825Z,4.77
2019-05-30T05:06:07.273Z,4.37
2019-05-30T05:11:16.606Z,3.90
2019-05-30T05:16:31.279Z,3.90
2019-05-30T05:21:26.934Z,3.80
2019-05-30T05:26:32.112Z,3.50
2019-05-30T05:31:38.526Z,3.17
2019-05-30T05:36:43.746Z,3.00
2019-05-30T05:41:49.300Z,3.20
2019-05-30T05:46:54.581Z,3.27
2019-05-30T05:52:00.276Z,2.43
2019-05-30T05:57:05.578Z,2.50
2019-05-30T06:02:12.334Z,2.43
2019-05-30T06:07:18.180Z,2.67
2019-05-30T06:12:23.856Z,2.67
2019-05-30T06:17:29.418Z,1.87
2019-05-30T06:22:34.555Z,1.90
2019-05-30T06:27:39.878Z,2.13
2019-05-30T06:32:45.065Z,1.63
2019-05-30T06:37:50.233Z,2.30
2019-05-30T06:42:55.466Z,2.17
2019-05-30T06:48:00.681Z,2.00
2019-05-30T06:53:06.388Z,2.20
2019-05-30T06:58:11.656Z,2.07
2019-05-30T07:03:16.881Z,1.73
2019-05-30T07:08:22.644Z,1.90
2019-05-30T07:13:29.753Z,1.67
2019-05-30T07:18:36.729Z,1.80
2019-05-30T07:23:42.120Z,1.10
2019-05-30T07:28:48.516Z,1.70
2019-05-30T07:33:55.315Z,1.53
2019-05-30T07:39:00.708Z,1.50
2019-05-30T07:44:07.978Z,1.80
2019-05-30T07:49:15.300Z,1.97
2019-05-30T07:54:23.499Z,1.33
2019-05-30T07:59:30.354Z,1.70
2019-05-30T08:04:35.760Z,2.03
2019-05-30T08:09:41.066Z,2.60
2019-05-30T08:14:46.604Z,1.40
2019-05-30T08:19:51.882Z,1.30
2019-05-30T08:24:57.089Z,1.50
2019-05-30T08:30:02.592Z,1.17
2019-05-30T08:35:09.006Z,1.67
2019-05-30T08:40:16.658Z,1.60
2019-05-30T08:45:21.899Z,1.13
2019-05-30T08:50:27.383Z,1.77
2019-05-30T08:55:32.636Z,1.50
2019-05-30T09:00:37.930Z,1.60
2019-05-30T09:06:02.057Z,1.20
2019-05-30T09:10:51.040Z,1.63
2019-05-30T09:15:59.264Z,1.10
2019-05-30T09:21:04.777Z,1.57
2019-05-30T09:26:10.085Z,1.20
2019-05-30T09:31:15.664Z,1.27
2019-05-30T09:36:20.992Z,1.30
2019-05-30T09:41:26.245Z,1.30
2019-05-30T09:46:31.564Z,1.13
2019-05-30T09:51:38.589Z,1.13
2019-05-30T09:56:45.001Z,1.53
2019-05-30T10:01:50.416Z,1.30
2019-05-30T10:06:57.258Z,1.03
2019-05-30T10:12:02.415Z,1.60
2019-05-30T10:17:09.269Z,1.03
2019-05-30T10:22:16.259Z,1.63
2019-05-30T10:27:21.902Z,1.30
2019-05-30T10:32:27.121Z,1.43
2019-05-30T10:37:33.784Z,1.20
2019-05-30T10:42:39.161Z,1.30
2019-05-30T10:47:45.846Z,1.60
2019-05-30T10:52:51.565Z,1.83
2019-05-30T10:57:59.540Z,1.60
2019-05-30T11:03:06.622Z,1.40
2019-05-30T11:08:16.002Z,1.23
2019-05-30T11:13:21.676Z,1.60
2019-05-30T11:18:27.059Z,1.50
2019-05-30T11:23:32.347Z,1.67
2019-05-30T11:28:38.095Z,1.40
2019-05-30T11:33:44.483Z,1.17
2019-05-30T11:38:49.638Z,1.70
2019-05-30T11:43:55.594Z,1.30
2019-05-30T11:49:00.894Z,1.60
2019-05-30T11:54:06.325Z,1.40
2019-05-30T11:59:11.683Z,1.20
2019-05-30T12:04:18.324Z,1.10
2019-05-30T12:09:23.582Z,1.40
2019-05-30T12:14:28.860Z,1.10
2019-05-30T12:19:34.468Z,1.00
2019-05-30T12:24:41.384Z,1.30
2019-05-30T12:29:46.885Z,0.90
2019-05-30T12:34:52.348Z,1.17
2019-05-30T12:39:58.665Z,2.37
2019-05-30T12:45:07.426Z,1.50
2019-05-30T12:50:16.542Z,1.70
2019-05-30T12:55:22.684Z,1.30
2019-05-30T13:00:28.988Z,1.33
2019-05-30T13:05:34.345Z,1.50
2019-05-30T13:10:39.551Z,1.40
2019-05-30T13:15:44.838Z,1.47
2019-05-30T13:20:50.835Z,1.30
2019-05-30T13:25:59.492Z,1.40
2019-05-30T13:31:04.852Z,1.10
2019-05-30T13:36:10.465Z,1.40
2019-05-30T13:41:16.887Z,1.60
2019-05-30T13:46:22.131Z,1.30
2019-05-30T13:51:27.491Z,1.30
2019-05-30T13:56:32.809Z,1.60
2019-05-30T14:01:38.322Z,1.43
2019-05-30T14:06:43.729Z,1.50
2019-05-30T14:11:48.905Z,1.87
2019-05-30T14:16:54.728Z,2.23
2019-05-30T14:22:01.143Z,1.07
2019-05-30T14:27:07.611Z,1.63
2019-05-30T14:32:13.016Z,1.63
2019-05-30T14:37:18.276Z,1.73
2019-05-30T14:42:23.570Z,1.47
2019-05-30T14:47:28.793Z,1.80
2019-05-30T14:52:37.255Z,1.60
2019-05-30T14:57:42.873Z,1.30
2019-05-30T15:03:10.167Z,1.47
2019-05-30T15:08:14.801Z,2.07
2019-05-30T15:13:19.944Z,1.30
2019-05-30T15:18:25.175Z,1.40
2019-05-30T15:23:30.486Z,1.33
2019-05-30T15:28:35.711Z,1.53
2019-05-30T15:33:40.973Z,1.40
2019-05-30T15:38:46.598Z,1.30
2019-05-30T15:43:51.831Z,1.40
2019-05-30T15:48:57.097Z,1.30
2019-05-30T15:54:02.278Z,1.60
2019-05-30T15:59:09.941Z,1.70
2019-05-30T16:04:18.240Z,1.30
2019-05-30T16:09:23.766Z,1.10
2019-05-30T16:14:28.976Z,3.07
2019-05-30T16:19:34.317Z,1.90
2019-05-30T16:24:40.890Z,1.97
2019-05-30T16:29:46.296Z,1.23
2019-05-30T16:34:51.823Z,1.47
2019-05-30T16:40:05.973Z,1.27
2019-05-30T16:45:04.151Z,2.00
2019-05-30T16:50:11.450Z,1.23
2019-05-30T16:55:17.290Z,1.40
2019-05-30T17:00:23.138Z,1.40
2019-05-30T17:05:28.659Z,1.50
2019-05-30T17:10:34.016Z,1.40
2019-05-30T17:15:39.180Z,1.67
2019-05-30T17:20:44.449Z,1.30
2019-05-30T17:25:49.959Z,1.30
2019-05-30T17:30:55.169Z,1.57
2019-05-30T17:36:00.468Z,1.67
2019-05-30T17:41:05.864Z,1.50
2019-05-30T17:46:10.987Z,1.70
2019-05-30T17:51:16.204Z,1.90
2019-05-30T17:56:22.028Z,1.60
2019-05-30T18:01:28.459Z,1.90
2019-05-30T18:06:33.714Z,1.80
2019-05-30T18:11:39.117Z,2.27
2019-05-30T18:16:44.417Z,1.83
2019-05-30T18:21:49.750Z,2.13
2019-05-30T18:26:56.340Z,1.80
2019-05-30T18:32:03.834Z,2.30
2019-05-30T18:37:10.143Z,1.60
2019-05-30T18:42:16.156Z,2.00
2019-05-30T18:47:21.304Z,1.60
2019-05-30T18:52:26.655Z,1.80
2019-05-30T18:57:32.884Z,2.23
2019-05-30T19:02:38.702Z,2.53
2019-05-30T19:07:44.497Z,3.10
2019-05-30T19:12:50.963Z,4.73
2019-05-30T19:17:57.079Z,5.43
2019-05-30T19:23:02.593Z,4.70
2019-05-30T19:28:08.266Z,5.20
2019-05-30T19:33:14.083Z,7.77
2019-05-30T19:38:19.519Z,12.70
2019-05-30T19:43:24.943Z,12.30
2019-05-30T19:48:32.965Z,10.77
2019-05-30T19:53:39.165Z,6.47
2019-05-30T19:58:44.615Z,10.83
2019-05-30T20:03:49.892Z,10.37
2019-05-30T20:08:56.067Z,10.40
2019-05-30T20:14:02.269Z,9.27
2019-05-30T20:19:07.646Z,8.13
2019-05-30T20:24:12.917Z,7.37
2019-05-30T20:29:19.513Z,7.03
2019-05-30T20:34:25.011Z,5.77
2019-05-30T20:39:30.420Z,7.27
2019-05-30T20:44:36.873Z,10.67
2019-05-30T20:49:43.422Z,12.07
2019-05-30T20:54:50.075Z,14.27
2019-05-30T20:59:55.492Z,12.27
2019-05-30T21:05:00.749Z,8.77
2019-05-30T21:10:07.080Z,8.73
2019-05-30T21:15:13.422Z,8.97
2019-05-30T21:20:18.582Z,9.20
2019-05-30T21:25:24.697Z,8.67
2019-05-30T21:30:30.805Z,8.87
2019-05-30T21:35:37.477Z,9.17
2019-05-30T21:40:44.363Z,8.50
2019-05-30T21:45:50.012Z,7.80
2019-05-30T21:50:58.144Z,7.80
2019-05-30T21:56:03.343Z,7.80
2019-05-30T22:01:29.789Z,8.60
2019-05-30T22:06:35.179Z,7.73
2019-05-30T22:11:41.667Z,7.73
2019-05-30T22:16:47.918Z,7.47
2019-05-30T22:21:54.190Z,8.40
2019-05-30T22:26:59.947Z,7.07
2019-05-30T22:32:07.710Z,8.10
2019-05-30T22:37:13.653Z,6.60
2019-05-30T22:42:19.169Z,6.13
2019-05-30T22:47:24.793Z,6.27
2019-05-30T22:52:30.056Z,6.10
2019-05-30T22:57:35.812Z,5.63
2019-05-30T23:02:43.332Z,6.00
2019-05-30T23:07:51.578Z,6.30
2019-05-30T23:12:59.242Z,5.80
2019-05-30T23:18:04.626Z,6.07
2019-05-30T23:23:09.906Z,6.07
2019-05-30T23:28:15.243Z,6.00
2019-05-30T23:33:21.669Z,6.13
2019-05-30T23:38:27.497Z,5.70
2019-05-30T23:43:33.338Z,4.90
2019-05-30T23:48:38.726Z,5.87
2019-05-30T23:53:44.135Z,4.90
2019-05-30T23:58:50.552Z,5.23
